Lastrup, MN (56344)

3:59 PM CST on February 14, 2016 (GMT -0600)
Ripley | | Change Station
CLOSE
Current Station
Personal Weather Station
Location: Fort Ripley, MN
Elevation: 1211 ft
Nearby Weather Stations

Elev 1211 ft 46.14 °N, 94.24 °W | Updated 4 minutes ago

Snow
Snow
20.3 °F
Feels Like 11 °F
N
7.6
Wind Variable Wind from SSW

Today
High -- | Low -- °F
--% Chance of Precip.
Yesterday
High -- | Low -- °F
Precip. -- in
Pressure 29.87 in
Visibility 1.5 miles
Clouds Overcast 900 ft
Windchill 11 °F
Dew Point 18 °F
Humidity 90%
Rainfall in
Snow Depth Not available.
7:21 AM 5:40 PM
Waxing Crescent, 45% visible
METAR KLXL 142153Z AUTO 16008KT 1 1/2SM -SN OVC009 M07/M10 A2987 RMK AO2
Pressure 29.87 in
Visibility 1.5 miles
Clouds Overcast 900 ft
Windchill 11 °F
Dew Point 18 °F
Humidity 90%
Rainfall in
Snow Depth Not available.
7:21 AM 5:40 PM
Waxing Crescent, 45% visible
METAR KLXL 142153Z AUTO 16008KT 1 1/2SM -SN OVC009 M07/M10 A2987 RMK AO2

10-Day Weather Forecast

Almanac

Astronomy

Feb. 14, 2016 Rise Set
Actual Time
Civil Twilight
Nautical Twilight
Astronomical Twilight
Moon
Length of Visible Light
Length of Day
Tomorrow will be .
, % of the Moon is Illuminated

Today's Extremes

State Highs State Lows

Community

WunderPhotos

Upload Photos

1,892,890 photos uploaded!

WunderBlog® & News

Nearby

Air Quality

  Air Quality AQ Index Pollutant
Not available.

Snow Depth

Station Depth Elevation

Earthquake Activity

City Distance Mag. Time & Date
Minimum magnitude displayed is 2.5.

Coastal Water Temperatures

Place Temperature

Stations

Nearby Weather Stations

Station Location Temp. Windchill Dew Point Humidity Wind Precip. Elev Updated Type
                   

Watches & Warnings

There are currently no watches in effect.